Cape Neddick, Maine
Current Conditions -  °F | °C
As of 9:58 PM on Tuesday 21 Oct 2014 (Local Time) from KPSM Reporting Station
Light Rain Light Rain  
Wind Chill: 50°   Ceiling: 600
Heat Index: 50°   Visibility: 7mi
Dew Point: 48°   Wind: 14mph
Humidity: 93%   Direction: 360°N
Pressure: 29.99"   Gusts: NA
Location:  43.17°N, 70.62°W
Report Text: KPSM 220158Z 36012KT 7SM -RA OVC006 10/09 A2999 RMK AO2A SLP159 P0001 T01020091
Loading
Personal Weather Stations






























Interactive Weather Map
Tropical Storm Tracking
New forecast layout! Learn more

10-Day Weather Forecast

Advertisements
Track Severe Weather on mobile